createdAt,value
2022-12-26T00:02:05.755Z,15.00
2022-12-26T00:04:48.538Z,14.93
2022-12-26T00:07:20.265Z,13.87
2022-12-26T00:09:50.105Z,14.57
2022-12-26T00:12:19.794Z,14.93
2022-12-26T00:14:49.560Z,14.50
2022-12-26T00:17:21.856Z,15.73
2022-12-26T00:19:51.612Z,15.27
2022-12-26T00:22:21.479Z,14.43
2022-12-26T00:24:51.621Z,14.57
2022-12-26T00:27:21.342Z,16.17
2022-12-26T00:29:51.084Z,14.83
2022-12-26T00:32:23.435Z,15.40
2022-12-26T00:34:53.141Z,13.93
2022-12-26T00:37:22.852Z,16.13
2022-12-26T00:39:52.603Z,15.40
2022-12-26T00:42:22.305Z,14.07
2022-12-26T00:44:52.013Z,13.53
2022-12-26T00:47:24.357Z,13.07
2022-12-26T00:50:11.433Z,12.67
2022-12-26T00:52:43.743Z,12.87
2022-12-26T00:55:13.719Z,12.67
2022-12-26T00:57:43.469Z,12.93
2022-12-26T01:00:14.741Z,11.93
2022-12-26T01:02:47.324Z,12.43
2022-12-26T01:05:17.194Z,13.10
2022-12-26T01:08:22.944Z,12.80
2022-12-26T01:10:36.651Z,12.97
2022-12-26T01:13:06.402Z,12.87
2022-12-26T01:15:36.112Z,11.53
2022-12-26T01:18:08.644Z,13.60
2022-12-26T01:20:38.377Z,13.23
2022-12-26T01:23:08.094Z,13.43
2022-12-26T01:25:37.841Z,11.33
2022-12-26T01:28:27.593Z,13.97
2022-12-26T01:30:57.330Z,12.30
2022-12-26T01:33:29.718Z,12.53
2022-12-26T01:35:59.677Z,12.87
2022-12-26T01:38:29.435Z,12.17
2022-12-26T01:41:11.407Z,11.53
2022-12-26T01:43:59.744Z,11.60
2022-12-26T01:46:33.885Z,12.53
2022-12-26T01:49:12.246Z,13.90
2022-12-26T01:51:46.510Z,13.57
2022-12-26T01:54:40.048Z,14.07
2022-12-26T01:57:12.811Z,14.40
2022-12-26T01:59:44.961Z,13.93
2022-12-26T02:02:15.034Z,14.20
2022-12-26T02:05:04.116Z,15.83
2022-12-26T02:07:35.314Z,14.30
2022-12-26T02:10:06.446Z,15.30
2022-12-26T02:12:39.207Z,13.77
2022-12-26T02:15:13.109Z,14.30
2022-12-26T02:17:45.630Z,13.40
2022-12-26T02:20:27.619Z,13.50
2022-12-26T02:23:37.917Z,12.23
2022-12-26T02:26:39.132Z,12.27
2022-12-26T02:29:42.534Z,12.60
2022-12-26T02:32:24.485Z,12.00
2022-12-26T02:35:04.579Z,12.93
2022-12-26T02:37:46.753Z,12.47
2022-12-26T02:40:36.062Z,10.30
2022-12-26T02:43:16.489Z,10.23
2022-12-26T02:46:06.131Z,10.23
2022-12-26T02:48:47.134Z,10.13
2022-12-26T02:51:41.463Z,12.23
2022-12-26T02:54:34.443Z,10.43
2022-12-26T02:57:20.809Z,11.13
2022-12-26T03:00:18.256Z,10.67
2022-12-26T03:03:06.202Z,10.57
2022-12-26T03:05:55.217Z,9.13
2022-12-26T03:08:43.422Z,9.57
2022-12-26T03:11:26.020Z,10.17
2022-12-26T03:13:57.651Z,8.87
2022-12-26T03:16:41.293Z,8.73
2022-12-26T03:19:15.117Z,11.10
2022-12-26T03:21:50.247Z,10.10
2022-12-26T03:24:20.809Z,10.37
2022-12-26T03:26:52.751Z,10.33
2022-12-26T03:29:36.719Z,11.17
2022-12-26T03:32:09.414Z,10.37
2022-12-26T03:34:41.911Z,11.37
2022-12-26T03:37:47.314Z,12.83
2022-12-26T03:40:48.105Z,12.67
2022-12-26T03:43:40.817Z,13.17
2022-12-26T03:46:33.288Z,13.13
2022-12-26T03:49:21.586Z,13.67
2022-12-26T03:52:14.267Z,14.17
2022-12-26T03:55:05.169Z,15.20
2022-12-26T03:57:55.135Z,15.67
2022-12-26T04:00:37.396Z,15.47
2022-12-26T04:03:25.503Z,16.70
2022-12-26T04:06:08.901Z,17.43
2022-12-26T04:09:00.731Z,17.77
2022-12-26T04:11:47.474Z,18.70
2022-12-26T04:14:43.475Z,18.03
2022-12-26T04:17:32.588Z,17.83
2022-12-26T04:20:10.919Z,16.13
2022-12-26T04:22:59.223Z,17.37
2022-12-26T04:25:50.251Z,17.67
2022-12-26T04:28:37.967Z,16.03
2022-12-26T04:31:25.713Z,15.93
2022-12-26T04:34:13.399Z,16.67
2022-12-26T04:36:59.479Z,15.43
2022-12-26T04:39:46.897Z,13.93
2022-12-26T04:42:30.175Z,14.37
2022-12-26T04:45:03.100Z,13.63
2022-12-26T04:47:34.573Z,14.43
2022-12-26T04:50:12.369Z,14.83
2022-12-26T04:52:54.835Z,13.83
2022-12-26T04:55:24.607Z,14.60
2022-12-26T04:57:54.384Z,14.40
2022-12-26T05:00:28.625Z,14.30
2022-12-26T05:03:16.393Z,14.23
2022-12-26T05:06:10.607Z,14.00
2022-12-26T05:08:55.026Z,13.60
2022-12-26T05:11:25.110Z,14.23
2022-12-26T05:13:56.007Z,14.37
2022-12-26T05:16:41.473Z,14.33
2022-12-26T05:19:26.443Z,13.50
2022-12-26T05:22:08.833Z,14.77
2022-12-26T05:24:54.870Z,13.47
2022-12-26T05:27:37.714Z,14.17
2022-12-26T05:30:09.252Z,14.07
2022-12-26T05:32:53.962Z,13.63
2022-12-26T05:35:23.725Z,13.87
2022-12-26T05:37:53.449Z,13.83
2022-12-26T05:40:23.171Z,14.20
2022-12-26T05:42:52.919Z,13.73
2022-12-26T05:45:23.073Z,14.47
2022-12-26T05:48:00.940Z,15.23
2022-12-26T05:50:30.702Z,14.13
2022-12-26T05:53:00.882Z,15.87
2022-12-26T05:55:30.662Z,16.27
2022-12-26T05:58:03.183Z,16.17
2022-12-26T06:00:33.047Z,15.60
2022-12-26T06:03:05.507Z,15.40
2022-12-26T06:05:35.560Z,15.63
2022-12-26T06:08:05.336Z,16.70
2022-12-26T06:10:35.044Z,16.20
2022-12-26T06:13:04.801Z,16.00
2022-12-26T06:15:34.551Z,14.67
2022-12-26T06:18:07.005Z,15.27
2022-12-26T06:20:36.745Z,15.13
2022-12-26T06:23:06.475Z,14.97
2022-12-26T06:25:36.349Z,15.30
2022-12-26T06:28:06.313Z,14.70
2022-12-26T06:30:36.054Z,15.13
2022-12-26T06:33:08.391Z,15.00
2022-12-26T06:35:38.138Z,15.87
2022-12-26T06:38:07.851Z,15.47
2022-12-26T06:40:37.606Z,14.17
2022-12-26T06:43:07.341Z,15.17
2022-12-26T06:45:37.130Z,13.77
2022-12-26T06:48:09.648Z,13.20
2022-12-26T06:50:39.628Z,13.27
2022-12-26T06:53:09.316Z,13.80
2022-12-26T06:55:39.006Z,12.63
2022-12-26T06:58:08.743Z,12.97
2022-12-26T07:00:38.489Z,12.87
2022-12-26T07:03:10.940Z,12.30
2022-12-26T07:05:42.488Z,13.00
2022-12-26T07:08:12.222Z,12.47
2022-12-26T07:10:41.945Z,12.77
2022-12-26T07:13:11.658Z,13.60
2022-12-26T07:15:41.374Z,12.47
2022-12-26T07:18:13.733Z,12.93
2022-12-26T07:20:43.459Z,12.50
2022-12-26T07:23:13.255Z,13.90
2022-12-26T07:25:43.061Z,12.67
2022-12-26T07:28:12.910Z,12.20
2022-12-26T07:30:42.630Z,11.77
2022-12-26T07:33:15.062Z,11.47
2022-12-26T07:35:44.827Z,11.10
2022-12-26T07:38:15.184Z,10.57
2022-12-26T07:40:44.975Z,10.47
2022-12-26T07:43:14.737Z,9.63
2022-12-26T07:45:46.021Z,9.67
2022-12-26T07:48:18.547Z,9.80
2022-12-26T07:50:49.844Z,9.23
2022-12-26T07:53:19.749Z,8.80
2022-12-26T07:55:49.804Z,8.00
2022-12-26T07:58:19.783Z,9.10
2022-12-26T08:00:49.615Z,7.93
2022-12-26T08:03:22.222Z,7.47
2022-12-26T08:05:54.325Z,7.50
2022-12-26T08:08:24.089Z,7.63
2022-12-26T08:11:02.232Z,7.00
2022-12-26T08:13:32.922Z,8.57
2022-12-26T08:16:02.846Z,6.80
2022-12-26T08:18:35.493Z,6.77
2022-12-26T08:21:05.332Z,6.57
2022-12-26T08:23:36.030Z,7.17
2022-12-26T08:26:09.616Z,6.67
2022-12-26T08:28:39.600Z,6.47
2022-12-26T08:31:10.421Z,6.83
2022-12-26T08:33:43.102Z,6.20
2022-12-26T08:36:17.064Z,6.00
2022-12-26T08:38:46.928Z,6.10
2022-12-26T08:41:17.634Z,6.20
2022-12-26T08:44:25.616Z,5.97
2022-12-26T08:46:40.165Z,5.50
2022-12-26T08:49:12.527Z,6.23
2022-12-26T08:51:42.688Z,5.30
2022-12-26T08:54:12.451Z,6.30
2022-12-26T08:56:42.437Z,5.63
2022-12-26T08:59:12.348Z,6.70
2022-12-26T09:01:43.134Z,7.03
2022-12-26T09:04:15.616Z,6.37
2022-12-26T09:06:45.338Z,6.10
2022-12-26T09:09:15.704Z,6.47
2022-12-26T09:11:45.684Z,6.37
2022-12-26T09:14:15.694Z,6.30
2022-12-26T09:16:50.847Z,6.13
2022-12-26T09:19:24.908Z,6.10
2022-12-26T09:22:15.988Z,5.83
2022-12-26T09:24:45.744Z,6.23
2022-12-26T09:27:15.490Z,5.83
2022-12-26T09:29:45.261Z,5.23
2022-12-26T09:32:14.970Z,5.13
2022-12-26T09:34:47.333Z,4.80
2022-12-26T09:37:17.030Z,5.50
2022-12-26T09:39:46.815Z,4.20
2022-12-26T09:42:26.642Z,3.83
2022-12-26T09:45:04.575Z,4.03
2022-12-26T09:47:36.410Z,3.10
2022-12-26T09:50:15.648Z,2.93
2022-12-26T09:52:51.558Z,2.47
2022-12-26T09:55:37.096Z,2.43
2022-12-26T09:58:14.889Z,2.83
2022-12-26T10:00:51.680Z,2.80
2022-12-26T10:03:21.488Z,2.87
2022-12-26T10:06:13.186Z,2.60
2022-12-26T10:09:02.365Z,3.13
2022-12-26T10:11:40.673Z,3.27
2022-12-26T10:14:21.834Z,2.60
2022-12-26T10:16:58.827Z,2.60
2022-12-26T10:19:42.664Z,2.43
2022-12-26T10:22:33.451Z,2.93
2022-12-26T10:25:05.932Z,2.70
2022-12-26T10:27:43.965Z,2.90
2022-12-26T10:30:21.032Z,2.57
2022-12-26T10:32:55.383Z,3.00
2022-12-26T10:35:31.876Z,2.90
2022-12-26T10:38:09.473Z,2.67
2022-12-26T10:40:43.486Z,3.50
2022-12-26T10:43:26.876Z,2.73
2022-12-26T10:46:11.659Z,2.70
2022-12-26T10:48:41.537Z,2.53
2022-12-26T10:51:13.091Z,2.67
2022-12-26T10:53:50.552Z,2.27
2022-12-26T10:56:20.898Z,2.20
2022-12-26T10:59:01.436Z,1.70
2022-12-26T11:01:36.955Z,3.10
2022-12-26T11:04:09.013Z,2.67
2022-12-26T11:06:42.134Z,1.90
2022-12-26T11:09:27.806Z,2.47
2022-12-26T11:11:57.585Z,2.60
2022-12-26T11:14:34.725Z,1.83
2022-12-26T11:17:07.833Z,2.30
2022-12-26T11:19:40.136Z,1.67
2022-12-26T11:22:33.795Z,2.13
2022-12-26T11:25:16.556Z,1.87
2022-12-26T11:27:47.996Z,2.10
2022-12-26T11:30:29.244Z,2.20
2022-12-26T11:33:16.176Z,1.53
2022-12-26T11:35:51.637Z,2.10
2022-12-26T11:38:42.469Z,2.33
2022-12-26T11:41:39.203Z,2.10
2022-12-26T11:44:19.510Z,2.00
2022-12-26T11:46:53.123Z,2.10
2022-12-26T11:49:30.217Z,2.30
2022-12-26T11:52:01.322Z,2.63
2022-12-26T11:54:40.078Z,2.60
2022-12-26T11:57:22.332Z,2.63
2022-12-26T11:59:54.574Z,2.37
2022-12-26T12:02:32.863Z,2.60
2022-12-26T12:05:05.540Z,2.80
2022-12-26T12:08:09.779Z,2.27
2022-12-26T12:11:02.727Z,2.73
2022-12-26T12:13:48.563Z,5.30
2022-12-26T12:16:34.894Z,2.97
2022-12-26T12:19:17.424Z,2.70
2022-12-26T12:21:49.547Z,2.67
2022-12-26T12:24:32.861Z,3.23
2022-12-26T12:27:12.281Z,2.53
2022-12-26T12:30:04.121Z,3.20
2022-12-26T12:32:44.017Z,2.47
2022-12-26T12:35:37.057Z,3.03
2022-12-26T12:38:24.770Z,2.90
2022-12-26T12:41:04.304Z,2.47
2022-12-26T12:43:43.361Z,3.23
2022-12-26T12:46:25.852Z,5.30
2022-12-26T12:49:06.768Z,2.87
2022-12-26T12:51:45.693Z,2.77
2022-12-26T12:55:03.561Z,2.73
2022-12-26T12:57:43.996Z,2.57
2022-12-26T13:00:19.644Z,3.23
2022-12-26T13:02:58.357Z,2.53
2022-12-26T13:05:47.330Z,2.73
2022-12-26T13:08:23.958Z,2.77
2022-12-26T13:10:57.984Z,2.50
2022-12-26T13:13:33.379Z,3.63
2022-12-26T13:16:08.997Z,2.97
2022-12-26T13:18:48.425Z,3.00
2022-12-26T13:21:19.700Z,2.27
2022-12-26T13:24:05.112Z,2.57
2022-12-26T13:26:39.191Z,2.73
2022-12-26T13:29:16.167Z,4.20
2022-12-26T13:31:47.527Z,2.63
2022-12-26T13:34:22.846Z,2.70
2022-12-26T13:36:54.843Z,3.30
2022-12-26T13:39:40.845Z,2.33
2022-12-26T13:42:39.270Z,3.30
2022-12-26T13:45:39.018Z,3.23
2022-12-26T13:48:57.753Z,2.83
2022-12-26T13:51:55.608Z,2.60
2022-12-26T13:54:27.970Z,2.53
2022-12-26T13:57:30.077Z,2.50
2022-12-26T14:00:08.993Z,3.57
2022-12-26T14:03:19.802Z,2.20
2022-12-26T14:06:15.264Z,2.27
2022-12-26T14:09:07.457Z,2.60
2022-12-26T14:12:00.782Z,2.77
2022-12-26T14:14:40.950Z,2.40
2022-12-26T14:17:21.919Z,3.20
2022-12-26T14:20:05.772Z,3.00
2022-12-26T14:22:45.613Z,2.00
2022-12-26T14:25:26.099Z,2.20
2022-12-26T14:28:02.399Z,2.87
2022-12-26T14:30:37.960Z,2.10
2022-12-26T14:33:23.762Z,2.33
2022-12-26T14:36:05.666Z,2.53
2022-12-26T14:38:48.563Z,3.43
2022-12-26T14:41:34.972Z,3.03
2022-12-26T14:44:20.098Z,2.87
2022-12-26T14:47:04.994Z,2.07
2022-12-26T14:49:44.361Z,2.60
2022-12-26T14:52:49.955Z,2.20
2022-12-26T14:55:49.715Z,2.20
2022-12-26T14:58:31.487Z,2.50
2022-12-26T15:01:36.493Z,1.97
2022-12-26T15:04:10.268Z,2.37
2022-12-26T15:07:01.178Z,2.57
2022-12-26T15:10:01.397Z,2.13
2022-12-26T15:13:10.662Z,2.93
2022-12-26T15:16:01.222Z,2.13
2022-12-26T15:18:58.731Z,2.00
2022-12-26T15:21:59.768Z,2.47
2022-12-26T15:25:18.593Z,1.93
2022-12-26T15:28:17.474Z,2.87
2022-12-26T15:31:19.975Z,2.33
2022-12-26T15:33:55.804Z,2.23
2022-12-26T15:36:33.501Z,2.13
2022-12-26T15:39:08.618Z,2.33
2022-12-26T15:41:46.616Z,2.10
2022-12-26T15:44:26.527Z,2.57
2022-12-26T15:47:13.471Z,2.63
2022-12-26T15:49:56.839Z,2.80
2022-12-26T15:52:40.971Z,2.60
2022-12-26T15:55:38.334Z,2.67
2022-12-26T15:58:19.259Z,2.43
2022-12-26T16:00:52.880Z,2.43
2022-12-26T16:03:33.781Z,2.77
2022-12-26T16:06:20.474Z,2.73
2022-12-26T16:09:09.665Z,2.50
2022-12-26T16:11:55.583Z,2.77
2022-12-26T16:14:31.923Z,2.50
2022-12-26T16:17:22.699Z,2.77
2022-12-26T16:19:55.743Z,2.60
2022-12-26T16:22:45.982Z,2.10
2022-12-26T16:25:19.890Z,2.40
2022-12-26T16:27:52.781Z,2.27
2022-12-26T16:30:26.070Z,2.10
2022-12-26T16:32:56.940Z,2.20
2022-12-26T16:35:32.369Z,2.30
2022-12-26T16:38:05.055Z,2.40
2022-12-26T16:40:36.551Z,2.73
2022-12-26T16:43:08.564Z,4.70
2022-12-26T16:45:40.670Z,3.67
2022-12-26T16:48:12.233Z,7.83
2022-12-26T16:50:53.013Z,3.40
2022-12-26T16:53:25.181Z,2.77
2022-12-26T16:56:01.094Z,2.60
2022-12-26T16:58:34.253Z,3.20
2022-12-26T17:01:11.096Z,2.03
2022-12-26T17:03:54.250Z,2.37
2022-12-26T17:06:31.329Z,2.20
2022-12-26T17:09:08.253Z,2.23
2022-12-26T17:11:40.457Z,2.57
2022-12-26T17:14:20.626Z,2.90
2022-12-26T17:16:50.411Z,2.00
2022-12-26T17:19:22.059Z,2.70
2022-12-26T17:22:23.366Z,3.80
2022-12-26T17:24:54.760Z,2.23
2022-12-26T17:27:27.252Z,2.70
2022-12-26T17:30:00.721Z,2.20
2022-12-26T17:32:36.217Z,2.50
2022-12-26T17:35:09.471Z,2.70
2022-12-26T17:37:42.449Z,3.13
2022-12-26T17:40:26.627Z,3.33
2022-12-26T17:42:58.435Z,3.00
2022-12-26T17:45:29.734Z,2.97
2022-12-26T17:48:00.587Z,3.17
2022-12-26T17:50:34.527Z,2.93
2022-12-26T17:53:21.860Z,2.93
2022-12-26T17:55:52.280Z,2.90
2022-12-26T17:58:22.024Z,3.30
2022-12-26T18:00:53.074Z,2.80
2022-12-26T18:03:22.871Z,2.60
2022-12-26T18:05:52.608Z,2.93
2022-12-26T18:08:30.100Z,2.70
2022-12-26T18:11:00.874Z,2.13
2022-12-26T18:13:31.212Z,2.47
2022-12-26T18:16:02.011Z,2.63
2022-12-26T18:18:35.189Z,2.57
2022-12-26T18:21:06.233Z,2.40
2022-12-26T18:23:39.091Z,2.40
2022-12-26T18:26:11.659Z,2.23
2022-12-26T18:28:41.383Z,2.47
2022-12-26T18:31:12.490Z,2.67
2022-12-26T18:33:42.235Z,4.33
2022-12-26T18:36:14.296Z,4.57
2022-12-26T18:38:47.497Z,28.23
2022-12-26T18:41:18.203Z,7.63
2022-12-26T18:43:47.996Z,3.10
2022-12-26T18:46:20.309Z,2.70
2022-12-26T18:48:51.111Z,2.33
2022-12-26T18:51:20.854Z,3.97
2022-12-26T18:53:53.259Z,3.23
2022-12-26T18:56:26.312Z,10.73
2022-12-26T18:58:58.167Z,2.87
2022-12-26T19:01:28.813Z,3.10
2022-12-26T19:03:58.746Z,2.87
2022-12-26T19:06:30.429Z,2.97
2022-12-26T19:09:02.816Z,2.40
2022-12-26T19:11:32.543Z,2.23
2022-12-26T19:14:02.997Z,2.37
2022-12-26T19:16:32.777Z,2.03
2022-12-26T19:19:03.075Z,2.13
2022-12-26T19:21:32.989Z,2.30
2022-12-26T19:24:05.385Z,2.37
2022-12-26T19:26:35.148Z,1.97
2022-12-26T19:29:05.083Z,2.47
2022-12-26T19:31:35.140Z,1.93
2022-12-26T19:34:04.951Z,2.00
2022-12-26T19:36:34.698Z,2.20
2022-12-26T19:39:07.284Z,2.70
2022-12-26T19:41:37.083Z,2.40
2022-12-26T19:44:06.880Z,2.30
2022-12-26T19:46:36.638Z,2.77
2022-12-26T19:49:06.704Z,3.20
2022-12-26T19:51:36.497Z,3.30
2022-12-26T19:54:08.908Z,2.30
2022-12-26T19:56:38.694Z,2.63
2022-12-26T19:59:08.518Z,2.70
2022-12-26T20:01:38.339Z,2.50
2022-12-26T20:04:09.787Z,2.40
2022-12-26T20:06:42.426Z,3.20
2022-12-26T20:09:17.247Z,2.90
2022-12-26T20:11:49.437Z,3.07
2022-12-26T20:14:21.495Z,2.63
2022-12-26T20:17:08.906Z,2.37
2022-12-26T20:19:39.747Z,2.97
2022-12-26T20:22:11.572Z,2.73
2022-12-26T20:24:43.940Z,2.63
2022-12-26T20:27:13.788Z,2.60
2022-12-26T20:29:43.514Z,2.63
2022-12-26T20:32:13.390Z,2.83
2022-12-26T20:34:43.196Z,2.37
2022-12-26T20:37:12.996Z,2.60
2022-12-26T20:39:45.307Z,2.80
2022-12-26T20:42:17.107Z,2.30
2022-12-26T20:44:46.921Z,2.47
2022-12-26T20:47:17.599Z,2.90
2022-12-26T20:49:47.381Z,2.50
2022-12-26T20:52:18.607Z,2.40
2022-12-26T20:54:50.926Z,2.47
2022-12-26T20:57:20.709Z,2.20
2022-12-26T20:59:50.635Z,1.90
2022-12-26T21:02:20.499Z,2.30
2022-12-26T21:04:51.123Z,2.80
2022-12-26T21:07:20.840Z,3.07
2022-12-26T21:09:53.183Z,3.03
2022-12-26T21:12:23.398Z,2.40
2022-12-26T21:14:53.283Z,1.90
2022-12-26T21:17:23.053Z,2.37
2022-12-26T21:19:52.777Z,2.53
2022-12-26T21:22:23.671Z,2.03
2022-12-26T21:24:55.979Z,1.90
2022-12-26T21:27:25.701Z,2.10
2022-12-26T21:29:55.429Z,2.40
2022-12-26T21:32:25.168Z,2.57
2022-12-26T21:34:54.935Z,2.00
2022-12-26T21:37:37.058Z,2.00
2022-12-26T21:40:10.787Z,2.13
2022-12-26T21:42:40.537Z,1.80
2022-12-26T21:45:11.846Z,2.20
2022-12-26T21:47:41.660Z,2.53
2022-12-26T21:50:12.320Z,2.10
2022-12-26T21:52:42.149Z,1.90
2022-12-26T21:55:31.294Z,2.20
2022-12-26T21:58:04.118Z,1.70
2022-12-26T22:00:35.438Z,1.90
2022-12-26T22:03:18.029Z,2.30
2022-12-26T22:05:47.824Z,1.83
2022-12-26T22:08:17.523Z,2.67
2022-12-26T22:11:14.547Z,1.77
2022-12-26T22:13:47.174Z,2.00
2022-12-26T22:16:16.912Z,2.67
2022-12-26T22:18:48.903Z,2.40
2022-12-26T22:21:20.181Z,2.23
2022-12-26T22:23:52.436Z,2.00
2022-12-26T22:26:26.018Z,1.87
2022-12-26T22:28:55.798Z,1.93
2022-12-26T22:31:28.973Z,2.27
2022-12-26T22:33:59.775Z,2.13
2022-12-26T22:36:30.564Z,2.33
2022-12-26T22:39:01.469Z,2.30
2022-12-26T22:41:35.166Z,2.00
2022-12-26T22:44:05.046Z,1.93
2022-12-26T22:46:34.885Z,1.80
2022-12-26T22:49:04.625Z,2.20
2022-12-26T22:51:34.375Z,2.10
2022-12-26T22:54:04.987Z,2.03
2022-12-26T22:56:37.348Z,2.20
2022-12-26T22:59:07.082Z,2.30
2022-12-26T23:01:36.879Z,2.10
2022-12-26T23:04:07.530Z,2.33
2022-12-26T23:06:39.977Z,2.23
2022-12-26T23:09:16.564Z,2.10
2022-12-26T23:12:09.521Z,1.73
2022-12-26T23:14:39.838Z,1.60
2022-12-26T23:17:33.476Z,1.73
2022-12-26T23:20:16.994Z,1.80
2022-12-26T23:22:47.382Z,2.00
2022-12-26T23:25:17.322Z,2.20
2022-12-26T23:28:02.110Z,1.80
2022-12-26T23:30:33.589Z,2.00
2022-12-26T23:33:03.331Z,1.90
2022-12-26T23:35:33.087Z,2.50
2022-12-26T23:38:02.815Z,2.23
2022-12-26T23:40:32.567Z,1.83
2022-12-26T23:43:04.884Z,3.13
2022-12-26T23:45:34.613Z,1.70
2022-12-26T23:48:04.359Z,2.33
2022-12-26T23:50:34.083Z,1.77
2022-12-26T23:53:03.827Z,2.10
2022-12-26T23:55:33.548Z,2.40
2022-12-26T23:58:05.922Z,2.20
